Time;durP1;ratioP1;P1;durP2;ratioP2;P2;SDS_P1;SDS_P2;PMS_P1;PMS_P2;Temp;Humidity;BMP_temperature;BMP_pressure;BME280_temperature;BME280_humidity;BME280_pressure;Samples;Min_cycle;Max_cycle;Signal;HPM_P1;HPM_P2
2022/12/12 00:01:45;;;;;;;;;0.00;0.00;;;;;15.50;57.79;99882.53;146610;695;46012;-81
2022/12/12 00:04:55;;;;;;;;;1.33;0.00;;;;;15.55;56.98;99877.41;146611;599;46020;-81
2022/12/12 00:07:56;;;;;;;;;0.00;0.00;;;;;15.57;55.86;99894.84;146607;570;46014;-81
2022/12/12 00:10:53;;;;;;;;;2.67;1.67;;;;;15.56;56.21;99887.88;146611;569;46010;-78
2022/12/12 00:13:59;;;;;;;;;1.67;1.33;;;;;15.52;57.57;99893.03;146607;585;46016;-81
2022/12/12 00:16:51;;;;;;;;;2.00;2.00;;;;;15.48;56.83;99898.19;146609;591;46010;-80
2022/12/12 00:19:45;;;;;;;;;2.00;1.00;;;;;15.46;56.99;99907.72;146606;657;46016;-80
2022/12/12 00:23:01;;;;;;;;;3.67;3.33;;;;;13.01;58.37;99489.91;146607;576;46020;-80
2022/12/12 00:26:11;;;;;;;;;5.50;4.25;;;;;15.44;57.34;99919.00;146605;579;46012;-80
2022/12/12 00:29:20;;;;;;;;;4.00;2.33;;;;;15.43;57.95;99930.31;146608;649;46021;-80
2022/12/12 00:32:24;;;;;;;;;8.25;7.00;;;;;15.41;58.30;99930.25;146604;625;46016;-80
2022/12/12 00:35:30;;;;;;;;;22.25;19.75;;;;;15.38;58.29;99938.03;146607;573;46020;-81
2022/12/12 00:38:25;;;;;;;;;23.75;19.00;;;;;15.37;57.99;99953.69;146607;590;46013;-81
2022/12/12 00:41:18;;;;;;;;;8.00;7.00;;;;;15.32;56.74;99961.44;146608;703;46020;-75
2022/12/12 00:44:19;;;;;;;;;10.50;9.00;;;;;15.29;57.79;99952.66;146607;585;46012;-77
2022/12/12 00:47:33;;;;;;;;;3.25;3.25;;;;;12.97;58.90;99558.34;146607;586;46020;-77
2022/12/12 00:50:28;;;;;;;;;4.00;2.75;;;;;15.19;57.71;99952.47;146606;633;46913;-75
2022/12/12 00:53:26;;;;;;;;;4.00;4.00;;;;;15.18;57.95;99960.28;146607;660;46020;-77
2022/12/12 00:56:28;;;;;;;;;2.00;2.00;;;;;15.13;58.95;99948.84;146607;673;46012;-77
2022/12/12 00:59:33;;;;;;;;;4.00;3.67;;;;;15.09;58.32;99942.69;146609;644;46021;-77
2022/12/12 01:02:37;;;;;;;;;0.33;0.33;;;;;14.52;58.46;99846.69;146610;675;46915;-77
2022/12/12 01:05:43;;;;;;;;;0.00;0.00;;;;;12.51;59.28;99534.72;146615;602;46010;-80
2022/12/12 01:08:45;;;;;;;;;3.00;2.00;;;;;14.94;58.64;99929.31;146615;564;46013;-76
2022/12/12 01:11:48;;;;;;;;;3.00;1.67;;;;;14.89;58.82;99917.91;146616;571;46020;-78
2022/12/12 01:14:43;;;;;;;;;1.00;1.00;;;;;14.82;57.83;99914.28;146611;619;46032;-77
2022/12/12 01:17:40;;;;;;;;;1.00;1.00;;;;;14.81;59.04;99911.66;146612;597;46020;-79
2022/12/12 01:20:33;;;;;;;;;1.00;1.00;;;;;14.76;58.38;99922.84;146608;614;46915;-79
2022/12/12 01:23:35;;;;;;;;;0.00;0.00;;;;;14.72;58.22;99922.78;146615;632;46020;-78
2022/12/12 01:26:34;;;;;;;;;0.00;0.00;;;;;14.64;59.10;99921.72;146612;593;46016;-79
2022/12/12 01:29:33;;;;;;;;;0.00;0.00;;;;;14.57;59.10;99912.88;146617;651;46012;-80
2022/12/12 01:32:57;;;;;;;;;;;;;;;;;;;;;
2022/12/12 01:35:59;;;;;;;;;0.67;0.00;;;;;14.40;59.36;99920.28;146616;602;46021;-80
2022/12/12 01:39:03;;;;;;;;;0.00;0.00;;;;;14.31;59.85;99915.75;146613;624;46016;-79
2022/12/12 01:42:26;;;;;;;;;1.00;1.00;;;;;14.20;60.02;99924.16;146614;563;47008;-77
2022/12/12 01:46:07;;;;;;;;;;;;;;;;;;;;;
2022/12/12 01:49:41;;;;;;;;;1.00;1.00;;;;;13.99;60.82;99928.03;146613;576;46012;-77
2022/12/12 01:52:53;;;;;;;;;0.00;0.00;;;;;11.21;61.37;99476.69;146614;565;46013;-79
2022/12/12 01:55:57;;;;;;;;;0.00;0.00;;;;;13.78;61.57;99933.56;146617;607;46010;-79
2022/12/12 01:58:54;;;;;;;;;1.00;0.67;;;;;13.74;61.82;99930.88;146613;611;45022;-79
2022/12/12 02:01:51;;;;;;;;;1.00;1.00;;;;;13.71;61.77;99938.59;146627;570;46916;-79
2022/12/12 02:04:50;;;;;;;;;1.67;1.67;;;;;13.70;61.66;99947.22;146627;632;45915;-79
2022/12/12 02:07:43;;;;;;;;;1.33;0.00;;;;;13.65;61.84;99939.31;146630;575;45012;-78
2022/12/12 02:10:46;;;;;;;;;3.00;1.00;;;;;13.58;61.83;99939.97;146631;624;45012;-79
2022/12/12 02:13:42;;;;;;;;;0.00;0.00;;;;;13.55;61.79;99942.50;146630;585;45021;-79
2022/12/12 02:17:24;;;;;;;;;1.00;0.00;;;;;10.94;62.14;99494.94;146630;703;45014;-80
2022/12/12 02:21:03;;;;;;;;;1.33;1.00;;;;;13.63;61.79;99933.16;146629;569;46023;-78
2022/12/12 02:24:43;;;;;;;;;0.00;0.00;;;;;11.18;61.65;99484.38;146628;574;44024;-78
2022/12/12 02:28:11;;;;;;;;;0.00;0.00;;;;;13.58;61.73;99880.97;146630;579;45020;-78
2022/12/12 02:31:38;;;;;;;;;0.67;0.00;;;;;12.32;60.70;99658.16;146628;580;45017;-80
2022/12/12 02:35:08;;;;;;;;;0.67;0.67;;;;;11.40;61.35;99481.59;146632;637;45012;-79
2022/12/12 02:38:59;;;;;;;;;0.33;0.33;;;;;11.50;60.88;99485.31;146628;583;45012;-79
2022/12/12 02:42:00;;;;;;;;;0.00;0.00;;;;;14.07;59.81;99925.59;146703;574;46022;-78
2022/12/12 02:45:05;;;;;;;;;0.33;0.33;;;;;14.07;60.60;99915.16;146621;625;46033;-78
2022/12/12 02:48:09;;;;;;;;;1.00;1.00;;;;;14.17;58.98;99930.16;146625;596;46010;-77
2022/12/12 02:51:20;;;;;;;;;0.00;0.00;;;;;14.20;60.84;99940.66;146617;587;47016;-78
2022/12/12 02:54:31;;;;;;;;;0.67;0.00;;;;;14.22;60.29;99936.38;146623;601;46021;-76
2022/12/12 02:57:27;;;;;;;;;1.33;1.33;;;;;14.34;59.85;99956.66;146622;625;46016;-78
2022/12/12 03:00:25;;;;;;;;;0.33;0.33;;;;;14.41;59.86;99949.88;146622;651;47021;-78
2022/12/12 03:07:51;;;;;;;;;0.00;0.00;;;;;14.41;58.64;99927.25;146623;563;46020;-79
2022/12/12 03:11:18;;;;;;;;;1.00;0.00;;;;;14.46;59.35;99930.00;146621;669;46019;-79
2022/12/12 03:14:49;;;;;;;;;0.00;0.00;;;;;14.44;59.81;99932.56;146624;621;46010;-80
2022/12/12 03:18:31;;;;;;;;;1.67;1.67;;;;;13.23;59.88;99725.53;146620;597;46016;-80
2022/12/12 03:22:00;;;;;;;;;3.00;1.00;;;;;14.39;57.96;99921.16;146627;565;45049;-80
2022/12/12 03:25:15;;;;;;;;;0.00;0.00;;;;;14.44;58.58;99916.03;146621;566;45017;-81
2022/12/12 03:28:38;;;;;;;;;1.33;0.33;;;;;14.51;59.27;99912.72;146625;657;45047;-78
2022/12/12 03:31:52;;;;;;;;;1.00;1.00;;;;;14.53;59.49;99898.88;146623;645;46012;-78
2022/12/12 03:35:14;;;;;;;;;1.00;0.00;;;;;14.64;58.36;99914.78;146625;595;46012;-78
2022/12/12 03:38:25;;;;;;;;;2.00;2.00;;;;;13.44;59.26;99723.47;146621;594;46012;-79
2022/12/12 03:41:24;;;;;;;;;0.33;0.00;;;;;14.68;58.49;99939.22;146622;676;46020;-78
2022/12/12 03:44:42;;;;;;;;;0.67;0.00;;;;;14.59;59.41;99925.97;146621;583;46012;-78
2022/12/12 03:48:21;;;;;;;;;0.00;0.00;;;;;13.43;59.58;99716.50;146625;630;46020;-79
2022/12/12 03:51:32;;;;;;;;;0.33;0.33;;;;;14.63;57.40;99933.88;146615;628;46016;-81
2022/12/12 03:54:54;;;;;;;;;0.00;0.00;;;;;14.69;58.02;99938.34;146624;586;46020;-77
2022/12/12 03:58:15;;;;;;;;;0.00;0.00;;;;;14.73;57.73;99941.06;146620;654;46016;-75
2022/12/12 04:01:14;;;;;;;;;2.00;0.67;;;;;14.73;56.52;99935.84;146623;603;46010;-77
2022/12/12 04:04:38;;;;;;;;;0.00;0.00;;;;;14.75;57.31;99933.28;146619;644;46016;-75
2022/12/12 04:08:01;;;;;;;;;0.00;0.00;;;;;14.80;57.02;99960.38;146623;627;46020;-79
2022/12/12 04:15:10;;;;;;;;;0.00;0.00;;;;;14.88;57.97;99977.06;146623;636;46010;-78
2022/12/12 04:18:41;;;;;;;;;2.33;2.00;;;;;14.98;57.19;99967.69;146617;564;46016;-79
2022/12/12 04:29:38;;;;;;;;;0.67;0.67;;;;;14.81;58.54;99951.69;146642;566;45020;-77
2022/12/12 04:33:09;;;;;;;;;0.00;0.00;;;;;14.97;58.43;99986.81;146620;585;46016;-77
2022/12/12 04:36:08;;;;;;;;;0.33;0.00;;;;;14.98;57.00;99986.88;146624;578;46020;-77
2022/12/12 04:39:18;;;;;;;;;1.00;1.00;;;;;15.04;57.23;99986.09;146622;569;46013;-77
2022/12/12 04:42:13;;;;;;;;;0.67;0.67;;;;;15.07;57.09;99993.13;146622;632;46020;-77
2022/12/12 04:45:22;;;;;;;;;0.00;0.00;;;;;15.09;56.83;100007.09;146620;588;46016;-77
2022/12/12 04:48:50;;;;;;;;;0.33;0.33;;;;;15.10;57.93;100017.56;146622;595;46020;-77
2022/12/12 04:51:55;;;;;;;;;1.00;0.00;;;;;15.07;59.05;100017.50;146618;601;48012;-77
2022/12/12 04:55:21;;;;;;;;;2.00;1.00;;;;;15.02;59.34;100021.75;146622;718;46020;-78
2022/12/12 04:58:25;;;;;;;;;1.67;1.67;;;;;14.92;58.99;100022.38;146622;594;46016;-78
2022/12/12 05:02:13;;;;;;;;;1.33;0.33;;;;;14.88;58.87;100025.78;146623;628;46021;-77
2022/12/12 05:05:25;;;;;;;;;1.00;0.67;;;;;14.83;59.04;100030.91;146621;632;46012;-78
2022/12/12 05:08:40;;;;;;;;;2.00;2.00;;;;;14.74;59.13;100008.06;146624;578;45021;-77
2022/12/12 05:11:47;;;;;;;;;1.00;1.00;;;;;14.81;58.97;100031.72;146622;602;46016;-79
2022/12/12 05:14:51;;;;;;;;;3.00;1.67;;;;;14.78;57.92;100048.16;146626;580;46011;-81
2022/12/12 05:17:54;;;;;;;;;0.00;0.00;;;;;14.72;57.95;100040.19;146621;570;46012;-78
2022/12/12 05:20:52;;;;;;;;;0.67;0.00;;;;;14.67;58.01;100049.63;146622;569;46020;-79
2022/12/12 05:23:47;;;;;;;;;1.00;1.00;;;;;14.68;57.37;100064.47;146623;570;46012;-80
2022/12/12 05:26:52;;;;;;;;;1.33;1.33;;;;;14.72;58.29;100061.06;146625;578;47010;-79
2022/12/12 05:29:58;;;;;;;;;0.33;0.33;;;;;14.72;57.17;100050.63;146621;571;46916;-78
2022/12/12 05:32:59;;;;;;;;;8.00;8.00;;;;;14.86;56.80;100048.34;146625;565;46010;-79
2022/12/12 05:36:00;;;;;;;;;0.00;0.00;;;;;14.88;53.74;100039.69;146620;579;46016;-79
2022/12/12 05:39:01;;;;;;;;;4.00;2.67;;;;;14.98;56.03;100048.62;146624;624;46010;-78
2022/12/12 05:41:56;;;;;;;;;3.00;1.00;;;;;15.01;57.47;100052.19;146620;649;46916;-79
2022/12/12 05:44:55;;;;;;;;;0.33;0.33;;;;;14.99;56.05;100051.28;146625;642;46011;-79
2022/12/12 05:47:47;;;;;;;;;2.00;1.67;;;;;14.97;57.23;100050.34;146621;588;46012;-78
2022/12/12 05:50:53;;;;;;;;;1.00;1.00;;;;;14.98;56.45;100046.00;146626;603;46020;-78
2022/12/12 05:54:08;;;;;;;;;1.00;1.00;;;;;14.86;56.50;100043.13;146617;575;46016;-78
2022/12/12 05:57:16;;;;;;;;;1.33;0.00;;;;;14.87;56.19;100051.00;146625;637;46010;-82
2022/12/12 06:00:28;;;;;;;;;3.00;2.33;;;;;14.85;55.85;100047.47;146621;574;46016;-80
2022/12/12 06:03:30;;;;;;;;;0.00;0.00;;;;;14.84;55.36;100047.44;146623;638;46030;-80
2022/12/12 06:06:37;;;;;;;;;0.00;0.00;;;;;14.85;56.25;100043.97;146619;694;46016;-80
2022/12/12 06:09:32;;;;;;;;;2.67;2.00;;;;;14.84;55.62;100031.78;146625;565;46020;-79
2022/12/12 06:12:27;;;;;;;;;3.33;2.33;;;;;14.82;55.52;100041.28;146620;587;46917;-80
2022/12/12 06:15:39;;;;;;;;;3.67;3.67;;;;;14.76;56.83;100042.91;146627;636;46010;-79
2022/12/12 06:18:34;;;;;;;;;6.50;5.75;;;;;14.72;57.09;100050.63;146621;700;46016;-79
2022/12/12 06:21:29;;;;;;;;;3.00;3.00;;;;;14.70;54.72;100065.38;146623;566;46021;-81
2022/12/12 06:24:26;;;;;;;;;1.00;1.00;;;;;14.71;54.84;100060.19;146622;678;46012;-79
2022/12/12 06:27:26;;;;;;;;;4.67;4.67;;;;;14.74;55.63;100052.44;146624;564;46020;-80
2022/12/12 06:30:20;;;;;;;;;4.67;3.00;;;;;14.76;55.50;100057.69;146619;627;46016;-79
2022/12/12 06:33:15;;;;;;;;;3.67;0.67;;;;;14.75;55.21;100059.41;146624;628;46020;-77
2022/12/12 06:36:50;;;;;;;;;2.00;2.00;;;;;14.72;55.95;100061.94;146617;564;46016;-76
2022/12/12 06:39:43;;;;;;;;;2.00;2.00;;;;;14.70;54.99;100065.38;146625;590;46020;-77
2022/12/12 06:42:41;;;;;;;;;0.67;0.67;;;;;14.68;54.87;100067.06;146619;676;46012;-76
2022/12/12 06:45:51;;;;;;;;;;;;;;;;;;;;;
2022/12/12 06:48:55;;;;;;;;;2.33;1.00;;;;;14.56;56.45;100072.88;146618;574;46914;-70
2022/12/12 06:52:05;;;;;;;;;3.00;1.00;;;;;14.66;56.69;100094.84;146625;629;46029;-76
2022/12/12 06:55:09;;;;;;;;;1.00;1.00;;;;;14.65;55.66;100096.56;146611;592;48916;-75
2022/12/12 06:58:04;;;;;;;;;3.00;1.00;;;;;14.66;56.43;100100.06;146620;667;46013;-75
2022/12/12 07:01:00;;;;;;;;;4.33;2.33;;;;;14.76;57.30;100099.44;146620;637;46028;-76
2022/12/12 07:03:54;;;;;;;;;3.67;1.33;;;;;14.85;56.80;100110.09;146622;569;46031;-76
2022/12/12 07:06:54;;;;;;;;;2.00;2.00;;;;;14.94;55.87;100112.06;146620;655;46916;-75
2022/12/12 07:10:01;;;;;;;;;2.33;1.33;;;;;15.02;55.83;100100.06;146622;608;46020;-75
2022/12/12 07:13:09;;;;;;;;;;;;;;;;;;;;;
2022/12/12 07:16:24;;;;;;;;;4.33;4.33;;;;;16.66;55.57;100115.56;146624;630;46020;-75
2022/12/12 07:19:16;;;;;;;;;1.00;1.00;;;;;17.67;49.93;100115.37;146619;670;46016;-77
2022/12/12 07:22:12;;;;;;;;;0.33;0.33;;;;;18.49;48.03;100113.66;146623;567;46020;-75
2022/12/12 07:25:07;;;;;;;;;2.00;2.00;;;;;19.13;45.23;100095.81;146619;611;46016;-75
2022/12/12 07:27:59;;;;;;;;;2.00;1.00;;;;;19.66;44.28;100104.87;146624;634;46010;-74
2022/12/12 07:31:05;;;;;;;;;1.00;0.00;;;;;19.98;42.79;100116.41;146615;597;46016;-76
2022/12/12 07:34:00;;;;;;;;;3.00;0.33;;;;;20.26;43.75;100111.22;146623;723;46010;-74
2022/12/12 07:37:13;;;;;;;;;0.67;0.67;;;;;20.51;43.39;100122.69;146618;622;46017;-75
2022/12/12 07:40:05;;;;;;;;;5.00;4.33;;;;;20.76;43.32;100113.06;146624;566;46010;-75
2022/12/12 07:42:58;;;;;;;;;2.33;2.33;;;;;20.96;42.04;100113.91;146618;670;47917;-74
2022/12/12 07:45:56;;;;;;;;;0.00;0.00;;;;;20.71;41.51;100048.94;146625;595;45031;-73
2022/12/12 07:48:48;;;;;;;;;1.00;0.33;;;;;21.05;43.17;100115.69;146622;571;46012;-74
2022/12/12 07:51:41;;;;;;;;;0.00;0.00;;;;;21.06;43.82;100116.53;146624;586;46010;-74
2022/12/12 07:54:33;;;;;;;;;1.00;0.00;;;;;21.11;44.01;100127.97;146618;582;47016;-73
2022/12/12 07:57:40;;;;;;;;;0.00;0.00;;;;;21.15;45.41;100127.09;146625;616;45020;-73
2022/12/12 08:00:44;;;;;;;;;1.00;0.00;;;;;21.18;46.29;100127.06;146619;622;46016;-74
2022/12/12 08:03:58;;;;;;;;;0.67;0.33;;;;;21.26;44.89;100140.28;146620;572;47010;-74
2022/12/12 08:06:53;;;;;;;;;7.33;4.00;;;;;21.30;43.22;100127.06;146617;571;46016;-76
2022/12/12 08:09:46;;;;;;;;;0.00;0.00;;;;;21.33;39.54;100124.41;146622;606;46020;-75
2022/12/12 08:12:51;;;;;;;;;0.00;0.00;;;;;21.29;40.04;100125.31;146622;570;46012;-77
2022/12/12 08:15:45;;;;;;;;;4.00;0.00;;;;;21.25;43.46;100135.87;146623;604;46020;-76
2022/12/12 08:18:41;;;;;;;;;0.00;0.00;;;;;21.26;42.44;100138.50;146622;671;46012;-76
2022/12/12 08:21:38;;;;;;;;;0.67;0.67;;;;;21.28;41.32;100142.03;146623;628;46012;-75
2022/12/12 08:24:46;;;;;;;;;0.33;0.33;;;;;21.30;39.00;100136.72;146622;563;46016;-76
2022/12/12 08:27:55;;;;;;;;;0.00;0.00;;;;;21.23;44.73;100128.84;146623;594;46021;-77
2022/12/12 08:30:55;;;;;;;;;0.33;0.00;;;;;21.27;40.61;100126.19;146618;610;46016;-76
2022/12/12 08:33:56;;;;;;;;;0.00;0.00;;;;;21.33;41.92;100123.53;146623;588;46010;-76
2022/12/12 08:36:58;;;;;;;;;1.00;0.00;;;;;21.36;40.65;100116.53;146619;622;46016;-76
2022/12/12 08:39:58;;;;;;;;;1.00;0.00;;;;;20.35;39.68;99936.59;146621;576;46020;-76
2022/12/12 08:42:53;;;;;;;;;0.00;0.00;;;;;21.46;38.06;100120.03;146620;564;46016;-75
2022/12/12 08:46:09;;;;;;;;;0.00;0.00;;;;;21.53;43.50;100124.41;146622;612;46020;-76
2022/12/12 08:49:07;;;;;;;;;0.00;0.00;;;;;21.63;39.18;100125.25;146620;651;46012;-75
2022/12/12 08:52:08;;;;;;;;;1.00;1.00;;;;;21.68;39.47;100113.81;146622;615;46020;-76
2022/12/12 08:55:06;;;;;;;;;1.00;1.00;;;;;21.76;40.79;100112.91;146618;680;46916;-75
2022/12/12 08:58:04;;;;;;;;;3.00;2.33;;;;;21.88;40.87;100112.84;146624;591;46011;-75
2022/12/12 09:00:56;;;;;;;;;2.33;1.00;;;;;22.00;39.99;100106.62;146619;586;46016;-74
2022/12/12 09:03:55;;;;;;;;;1.33;1.00;;;;;22.06;42.35;100114.53;146623;565;46020;-75
2022/12/12 09:06:56;;;;;;;;;0.00;0.00;;;;;22.14;40.13;100116.22;146617;582;46916;-75
2022/12/12 09:09:58;;;;;;;;;1.00;0.00;;;;;22.13;38.75;100119.75;146623;631;46010;-75
2022/12/12 09:13:04;;;;;;;;;1.33;0.00;;;;;20.82;41.30;99906.69;146619;670;46034;-75
2022/12/12 09:16:05;;;;;;;;;0.00;0.00;;;;;21.69;36.70;100112.03;146623;617;46020;-75
2022/12/12 09:19:03;;;;;;;;;0.00;0.00;;;;;21.42;39.30;100116.50;146619;564;46017;-75
2022/12/12 09:22:04;;;;;;;;;0.00;0.00;;;;;21.41;38.14;100101.59;146621;643;46020;-75
2022/12/12 09:24:59;;;;;;;;;3.00;2.00;;;;;21.41;38.18;100096.31;146619;588;46016;-76
2022/12/12 09:27:58;;;;;;;;;0.33;0.33;;;;;21.41;39.83;100091.03;146622;603;46021;-76
2022/12/12 09:31:08;;;;;;;;;3.00;3.00;;;;;21.48;40.17;100101.56;146619;607;46016;-76
2022/12/12 09:34:07;;;;;;;;;5.00;3.00;;;;;21.54;41.77;100094.50;146623;578;46010;-76
2022/12/12 09:37:13;;;;;;;;;5.33;4.00;;;;;21.71;41.46;100094.44;146614;651;48012;-76
2022/12/12 09:40:21;;;;;;;;;1.00;1.00;;;;;21.74;41.81;100097.06;146617;597;46020;-75
2022/12/12 09:43:22;;;;;;;;;1.00;1.00;;;;;21.58;42.43;100096.25;146619;574;46016;-78
2022/12/12 09:46:30;;;;;;;;;0.67;0.67;;;;;21.29;42.52;100098.94;146618;593;46012;-76
2022/12/12 09:49:55;;;;;;;;;1.00;1.00;;;;;19.68;45.53;99871.69;146619;598;46917;-76
2022/12/12 09:52:51;;;;;;;;;0.67;0.67;;;;;20.66;41.29;100088.47;146621;639;46020;-77
2022/12/12 09:56:27;;;;;;;;;0.00;0.00;;;;;20.46;46.67;100096.31;146619;592;46013;-76
2022/12/12 09:59:36;;;;;;;;;0.00;0.00;;;;;20.27;44.42;100092.78;146622;573;46020;-76
2022/12/12 10:03:09;;;;;;;;;2.00;0.33;;;;;20.12;47.66;100086.62;146619;581;46015;-76
2022/12/12 10:06:16;;;;;;;;;9.00;7.33;;;;;19.92;47.01;100092.72;146622;578;46020;-74
2022/12/12 10:09:48;;;;;;;;;13.75;12.75;;;;;19.73;48.46;100086.50;146615;659;46016;-75
2022/12/12 10:12:44;;;;;;;;;10.00;6.00;;;;;19.61;46.45;100096.94;146620;583;46013;-76
2022/12/12 10:15:47;;;;;;;;;3.67;3.67;;;;;19.52;46.52;100099.53;146620;611;46912;-74
2022/12/12 10:19:10;;;;;;;;;6.00;5.00;;;;;19.38;47.64;100088.97;146620;603;46020;-75
2022/12/12 10:22:16;;;;;;;;;4.67;4.00;;;;;19.26;46.40;100079.25;146618;571;46914;-75
2022/12/12 10:25:55;;;;;;;;;1.00;1.00;;;;;18.76;48.94;100018.53;146621;593;46020;-75
2022/12/12 10:28:57;;;;;;;;;1.33;1.33;;;;;18.99;46.35;100076.44;146619;569;46012;-75
2022/12/12 10:32:23;;;;;;;;;2.00;1.33;;;;;18.95;48.77;100075.56;146621;654;46020;-74
2022/12/12 10:35:59;;;;;;;;;2.67;1.00;;;;;19.00;49.15;100076.44;146619;583;46016;-75
2022/12/12 10:39:29;;;;;;;;;0.33;0.33;;;;;19.08;48.97;100084.41;146623;577;46020;-75
2022/12/12 10:42:59;;;;;;;;;0.00;0.00;;;;;19.17;49.85;100076.56;146618;650;46916;-75
2022/12/12 10:46:44;;;;;;;;;1.67;1.00;;;;;16.92;50.10;99657.78;146622;586;45580;-75
2022/12/12 10:50:16;;;;;;;;;0.00;0.00;;;;;16.83;45.88;99638.50;146620;608;46013;-75
2022/12/12 10:53:12;;;;;;;;;1.33;1.00;;;;;19.22;46.01;100051.22;146623;605;46012;-74
2022/12/12 10:56:38;;;;;;;;;1.00;0.00;;;;;17.91;47.55;99800.09;146613;600;47915;-76
2022/12/12 10:59:49;;;;;;;;;0.00;0.00;;;;;19.51;47.49;100039.94;146622;611;46010;-76
2022/12/12 11:02:50;;;;;;;;;0.00;0.00;;;;;19.64;45.88;100044.41;146620;704;46016;-77
2022/12/12 11:05:50;;;;;;;;;0.00;0.00;;;;;19.50;42.46;100036.44;146622;564;46012;-75
2022/12/12 11:08:56;;;;;;;;;1.00;1.00;;;;;19.29;45.06;100034.59;146619;600;46016;-76
2022/12/12 11:12:25;;;;;;;;;0.00;0.00;;;;;19.09;46.98;100039.72;146624;586;46012;-75
2022/12/12 11:15:21;;;;;;;;;0.00;0.00;;;;;18.91;44.38;100031.75;146617;598;46014;-75
2022/12/12 11:18:23;;;;;;;;;0.00;0.00;;;;;18.75;46.95;100033.37;146622;634;46021;-76
2022/12/12 11:21:24;;;;;;;;;0.00;0.00;;;;;18.63;48.11;100031.53;146619;567;46012;-75
2022/12/12 11:24:32;;;;;;;;;1.00;0.00;;;;;18.24;49.64;99983.09;146614;570;46912;-75
2022/12/12 11:27:38;;;;;;;;;0.00;0.00;;;;;18.40;46.39;100038.34;146618;572;46016;-73
2022/12/12 11:30:46;;;;;;;;;0.00;0.00;;;;;18.31;48.38;100030.37;146622;617;46012;-73
2022/12/12 11:33:47;;;;;;;;;1.00;0.00;;;;;18.26;48.79;100030.34;146619;642;46016;-75
2022/12/12 11:36:46;;;;;;;;;0.00;0.00;;;;;18.23;46.00;100030.31;146620;599;46020;-74
2022/12/12 11:39:47;;;;;;;;;1.00;1.00;;;;;18.18;47.04;100026.75;146616;572;46017;-76
2022/12/12 11:42:40;;;;;;;;;1.00;1.00;;;;;18.15;44.72;100018.88;146621;583;46021;-74
2022/12/12 11:45:38;;;;;;;;;0.67;0.33;;;;;18.15;45.67;100022.38;146619;582;46014;-75
2022/12/12 11:48:50;;;;;;;;;;;;;;;;;;;;;
2022/12/12 11:51:56;;;;;;;;;3.00;1.33;;;;;18.16;45.45;99999.63;146615;572;48914;-75
2022/12/12 11:55:01;;;;;;;;;6.00;2.00;;;;;18.21;44.29;100005.81;146622;612;46011;-76
2022/12/12 11:58:38;;;;;;;;;3.33;2.67;;;;;18.23;46.24;99994.47;146621;630;46012;-75
2022/12/12 12:02:10;;;;;;;;;7.00;6.33;;;;;18.26;46.92;100003.22;146621;585;46010;-76
2022/12/12 12:05:51;;;;;;;;;4.00;3.00;;;;;18.24;44.44;100005.81;146618;564;46014;-74
2022/12/12 12:09:17;;;;;;;;;1.33;1.33;;;;;18.25;44.32;100004.94;146623;701;45022;-75
2022/12/12 12:12:39;;;;;;;;;0.00;0.00;;;;;18.34;46.42;100004.16;146619;608;46012;-76
2022/12/12 12:16:23;;;;;;;;;0.00;0.00;;;;;15.80;41.34;99531.09;146621;585;46020;-73
2022/12/12 12:19:41;;;;;;;;;8.25;8.00;;;;;18.42;40.40;99984.09;146615;608;46016;-74
2022/12/12 12:23:03;;;;;;;;;18.25;15.75;;;;;15.94;43.53;99558.25;146619;607;46010;-73
2022/12/12 12:26:28;;;;;;;;;0.00;0.00;;;;;18.29;41.19;99971.78;146617;605;46016;-74
2022/12/12 12:30:15;;;;;;;;;1.67;1.67;;;;;15.47;41.73;99521.97;146622;626;46020;-73
2022/12/12 12:33:52;;;;;;;;;3.33;3.00;;;;;15.57;42.68;99543.84;146619;621;46016;-74
2022/12/12 12:37:44;;;;;;;;;2.33;1.00;;;;;15.64;44.92;99571.81;146620;593;47012;-75
2022/12/12 12:41:25;;;;;;;;;1.33;1.00;;;;;15.40;45.67;99517.53;146612;572;46016;-74
2022/12/12 12:44:42;;;;;;;;;2.00;2.00;;;;;18.10;45.09;99970.72;146618;591;46020;-73
2022/12/12 12:48:11;;;;;;;;;12.67;8.67;;;;;18.13;46.38;99971.63;146616;608;46017;-75
2022/12/12 12:51:27;;;;;;;;;3.00;2.00;;;;;18.11;45.32;99978.59;146623;600;46020;-72
2022/12/12 12:54:44;;;;;;;;;3.67;2.33;;;;;18.09;45.48;99982.94;146621;625;46013;-74
2022/12/12 12:57:58;;;;;;;;;6.67;6.67;;;;;18.07;46.35;99981.16;146622;594;46010;-73
2022/12/12 13:01:16;;;;;;;;;6.00;5.67;;;;;18.09;46.62;99982.06;146618;633;46012;-75
2022/12/12 13:04:27;;;;;;;;;4.00;3.33;;;;;18.14;48.21;99977.75;146623;626;46020;-73
2022/12/12 13:08:18;;;;;;;;;2.00;2.00;;;;;15.77;48.55;99552.84;146615;569;46016;-75
2022/12/12 13:11:58;;;;;;;;;3.00;2.00;;;;;15.65;47.61;99534.38;146623;624;46020;-76
2022/12/12 13:15:19;;;;;;;;;4.67;4.00;;;;;18.26;48.73;99988.38;146612;574;46016;-74
2022/12/12 13:18:19;;;;;;;;;6.00;6.00;;;;;18.23;49.15;99978.72;146622;600;46010;-74
2022/12/12 13:21:58;;;;;;;;;3.67;3.00;;;;;18.21;48.82;99959.44;146618;569;46915;-74
2022/12/12 13:25:21;;;;;;;;;6.33;2.00;;;;;15.50;48.18;99502.84;146619;638;46025;-74
2022/12/12 13:28:22;;;;;;;;;0.67;0.67;;;;;18.16;48.39;99968.13;146616;585;47041;-77
2022/12/12 13:31:43;;;;;;;;;2.00;2.00;;;;;15.56;49.16;99514.22;146622;688;46011;-75
2022/12/12 13:34:47;;;;;;;;;1.67;1.00;;;;;18.16;48.84;99962.87;146620;571;46012;-76
2022/12/12 13:37:57;;;;;;;;;7.33;4.67;;;;;18.23;49.40;99956.84;146623;581;46010;-74
2022/12/12 13:41:05;;;;;;;;;2.00;1.00;;;;;18.55;48.59;99958.81;146614;695;46014;-75
2022/12/12 13:44:09;;;;;;;;;3.67;2.67;;;;;18.90;47.62;99948.53;146622;565;46010;-74
2022/12/12 13:47:42;;;;;;;;;4.00;4.00;;;;;18.97;47.27;99910.94;146619;631;46013;-76
2022/12/12 13:51:25;;;;;;;;;5.00;4.00;;;;;19.47;46.64;99947.03;146612;599;47010;-75
2022/12/12 13:54:57;;;;;;;;;3.00;2.00;;;;;17.33;45.69;99542.81;146617;631;46914;-76
2022/12/12 13:58:35;;;;;;;;;4.33;3.33;;;;;17.00;47.43;99499.84;146622;692;46010;-77
2022/12/12 14:01:57;;;;;;;;;6.00;4.67;;;;;16.89;47.96;99522.50;146616;578;46013;-75
2022/12/12 14:05:16;;;;;;;;;2.33;0.33;;;;;18.94;48.41;99950.34;146621;701;46020;-75
2022/12/12 14:08:39;;;;;;;;;4.00;2.00;;;;;15.80;49.52;99476.22;146616;630;46032;-74
2022/12/12 14:11:39;;;;;;;;;2.00;2.00;;;;;18.46;50.63;99963.13;146621;595;46020;-75
2022/12/12 14:14:44;;;;;;;;;4.67;4.00;;;;;18.36;50.77;99965.69;146618;664;46016;-76
2022/12/12 14:17:41;;;;;;;;;16.50;14.50;;;;;18.25;50.65;99965.59;146622;601;46010;-75
2022/12/12 14:20:48;;;;;;;;;;;;;;;;;;;;;
2022/12/12 14:23:54;;;;;;;;;11.67;10.00;;;;;18.10;51.88;99989.06;146622;604;46010;-76
2022/12/12 14:26:55;;;;;;;;;7.00;6.00;;;;;18.00;52.24;99988.13;146617;574;46012;-76
2022/12/12 14:29:58;;;;;;;;;26.50;22.25;;;;;17.94;53.51;99990.69;146620;566;46010;-76
2022/12/12 14:33:41;;;;;;;;;1.67;1.00;;;;;15.16;52.77;99533.75;146615;565;46016;-75
2022/12/12 14:37:03;;;;;;;;;2.00;2.00;;;;;17.81;52.83;99986.19;146621;563;46012;-75
2022/12/12 14:40:18;;;;;;;;;5.67;4.33;;;;;17.77;53.87;99982.66;146618;571;46019;-75
2022/12/12 14:43:43;;;;;;;;;18.00;14.75;;;;;17.69;54.35;99974.66;146619;569;46020;-76
2022/12/12 14:46:45;;;;;;;;;;;;;;;;;;;;;
2022/12/12 14:49:49;;;;;;;;;7.33;6.00;;;;;17.60;55.10;99947.47;146620;579;46010;-74
2022/12/12 14:52:57;;;;;;;;;3.00;3.00;;;;;17.53;55.13;99951.78;146616;649;47016;-74
2022/12/12 14:56:24;;;;;;;;;4.67;3.33;;;;;17.51;54.86;99971.88;146624;583;46010;-74
2022/12/12 14:59:44;;;;;;;;;1.33;0.00;;;;;17.48;55.38;99959.59;146617;580;46016;-75
2022/12/12 15:02:43;;;;;;;;;5.00;4.00;;;;;17.48;55.25;99970.09;146624;584;46010;-74
2022/12/12 15:05:47;;;;;;;;;0.33;0.00;;;;;17.51;54.94;99985.84;146620;563;48012;-75
2022/12/12 15:08:44;;;;;;;;;3.00;3.00;;;;;17.52;57.20;99979.75;146622;582;46021;-76
2022/12/12 15:11:38;;;;;;;;;5.00;4.00;;;;;17.51;57.08;99972.75;146619;640;45016;-75
2022/12/12 15:14:31;;;;;;;;;3.00;3.00;;;;;17.50;56.68;99978.81;146619;591;46010;-76